Terminal Aerodrome Forecast
Issued by NWS Amarillo, TX

Home | Current Version | Previous Version | Text Only | Print | Product List | Glossary On
Versions: 1 2 3 4 5 6 7 8 9 10 11 12 13 14 15 16 17 18 19 20 21 22 23 24 25 26 27 28 29
000
FTUS44 KAMA 260816 AAC
TAFAMA
TAF AMD
KAMA 260816Z 2608/2706 VRB06KT P6SM OVC100
     FM261100 VRB05KT P6SM SCT015 OVC050
     FM261500 18010KT P6SM OVC100 PROB30 2618/2624 P6SM TS BKN050CB=

USA.gov is the U.S. government's official web portal to all federal, state and local government web resources and services.